Time;durP1;ratioP1;P1;durP2;ratioP2;P2;SDS_P1;SDS_P2;PMS_P1;PMS_P2;Temp;Humidity;BMP_temperature;BMP_pressure;BME280_temperature;BME280_humidity;BME280_pressure;Samples;Min_cycle;Max_cycle;Signal;HPM_P1;HPM_P2
2023/03/20 00:00:27;;;;;;;3.17;2.27;;;10.70;99.90;10.50;100596.00;;;;4898195;28;87923;-65
2023/03/20 00:02:53;;;;;;;2.13;1.77;;;10.70;99.90;10.50;100583.00;;;;4893247;28;88268;-65
2023/03/20 00:05:22;;;;;;;3.67;2.33;;;10.60;99.90;10.50;100587.00;;;;4896703;28;87977;-65
2023/03/20 00:07:49;;;;;;;4.70;2.10;;;10.60;99.90;10.50;100590.00;;;;4896152;28;87734;-65
2023/03/20 00:10:18;;;;;;;4.90;2.70;;;10.60;99.90;10.50;100589.00;;;;4896588;28;87811;-66
2023/03/20 00:12:47;;;;;;;2.30;2.00;;;10.60;99.90;10.50;100592.00;;;;4893805;28;89051;-66
2023/03/20 00:15:29;;;;;;;2.43;2.00;;;10.50;99.90;10.50;100593.00;;;;4895045;28;87263;-65
2023/03/20 00:17:55;;;;;;;7.47;2.20;;;10.50;99.90;10.50;100597.00;;;;4891945;28;99417;-65
2023/03/20 00:20:21;;;;;;;3.10;1.90;;;10.50;99.90;10.50;100587.00;;;;4895167;28;107434;-65
2023/03/20 00:22:48;;;;;;;2.20;2.00;;;10.50;99.90;10.40;100592.00;;;;4895093;28;89179;-66
2023/03/20 00:25:21;;;;;;;2.93;2.00;;;10.50;99.90;10.50;100590.00;;;;4896551;28;88717;-65
2023/03/20 00:27:47;;;;;;;3.87;2.73;;;10.50;99.90;10.40;100599.00;;;;4876281;28;88109;-65
2023/03/20 00:30:23;;;;;;;5.87;2.83;;;10.50;99.90;10.40;100604.00;;;;4891583;28;87951;-65
2023/03/20 00:32:50;;;;;;;4.30;3.13;;;10.50;99.90;10.50;100594.00;;;;4896308;28;88597;-65
2023/03/20 00:35:28;;;;;;;4.10;2.53;;;10.50;99.90;10.50;100598.00;;;;4895191;28;90656;-65
2023/03/20 00:37:56;;;;;;;2.07;1.87;;;10.50;99.90;10.50;100598.00;;;;4894525;28;87815;-65
2023/03/20 00:40:29;;;;;;;3.03;2.10;;;10.60;99.90;10.50;100600.00;;;;4895812;28;87764;-65
2023/03/20 00:43:00;;;;;;;3.27;2.13;;;10.60;99.90;10.50;100582.00;;;;4895070;28;88804;-65
2023/03/20 00:45:28;;;;;;;4.70;2.30;;;10.50;99.90;10.50;100594.00;;;;4893109;28;87894;-65
2023/03/20 00:47:54;;;;;;;4.60;2.50;;;10.60;99.90;10.50;100599.00;;;;4892510;28;88654;-64
2023/03/20 00:50:23;;;;;;;3.17;2.27;;;10.60;99.90;10.50;100601.00;;;;4895629;28;88038;-65
2023/03/20 00:52:50;;;;;;;3.83;2.70;;;10.60;99.90;10.50;100595.00;;;;4893059;28;88106;-65
2023/03/20 00:55:18;;;;;;;4.10;2.43;;;10.60;99.90;10.50;100597.00;;;;4893727;28;87976;-64
2023/03/20 00:57:59;;;;;;;3.83;2.83;;;10.60;99.90;10.50;100595.00;;;;4893113;28;88043;-65
2023/03/20 01:00:40;;;;;;;6.27;2.33;;;10.60;99.90;10.50;100595.00;;;;4909337;28;101020;-64
2023/03/20 01:03:17;;;;;;;2.93;1.87;;;10.60;99.90;10.50;100593.00;;;;4906675;28;89671;-65
2023/03/20 01:05:44;;;;;;;3.53;2.43;;;10.60;99.90;10.50;100587.00;;;;4894879;28;87523;-65
2023/03/20 01:08:22;;;;;;;2.90;1.97;;;10.60;99.90;10.50;100573.00;;;;4895531;28;88033;-65
2023/03/20 01:10:53;;;;;;;2.30;1.93;;;10.60;99.90;10.50;100581.00;;;;4897185;28;87879;-65
2023/03/20 01:13:30;;;;;;;2.03;1.60;;;10.60;99.90;10.50;100595.00;;;;4887595;28;112032;-65
2023/03/20 01:15:57;;;;;;;5.77;2.27;;;10.50;99.90;10.50;100580.00;;;;4895744;28;89171;-65
2023/03/20 01:18:25;;;;;;;3.07;2.37;;;10.60;99.90;10.50;100575.00;;;;4896286;28;88033;-64
2023/03/20 01:20:51;;;;;;;2.63;1.97;;;10.60;99.90;10.40;100576.00;;;;4891787;28;88054;-66
2023/03/20 01:23:18;;;;;;;4.23;2.63;;;10.50;99.90;10.40;100578.00;;;;4895122;28;89463;-66
2023/03/20 01:25:44;;;;;;;3.53;2.57;;;10.50;99.90;10.40;100576.00;;;;4891270;28;107777;-65
2023/03/20 01:28:21;;;;;;;1.83;1.53;;;10.50;99.90;10.40;100572.00;;;;4893137;28;87926;-65
2023/03/20 01:30:48;;;;;;;5.40;2.47;;;10.40;99.90;10.40;100576.00;;;;4907614;28;87139;-64
2023/03/20 01:33:22;;;;;;;1.70;1.60;;;10.40;99.90;10.40;100576.00;;;;4894494;28;88262;-64
2023/03/20 01:35:49;;;;;;;4.20;1.83;;;10.40;99.90;10.40;100568.00;;;;4895613;28;88520;-65
2023/03/20 01:38:21;;;;;;;2.90;2.03;;;10.40;99.90;10.30;100582.00;;;;4894214;28;109324;-65
2023/03/20 01:41:03;;;;;;;3.23;2.20;;;10.40;99.90;10.30;100576.00;;;;4889932;28;88090;-65
2023/03/20 01:43:29;;;;;;;2.33;1.83;;;10.40;99.90;10.30;100574.00;;;;4891332;28;88227;-64
2023/03/20 01:46:20;;;;;;;3.63;2.10;;;10.40;99.90;10.30;100580.00;;;;4890481;28;88690;-66
2023/03/20 01:48:49;;;;;;;2.90;2.57;;;10.40;99.90;10.30;100575.00;;;;4886719;28;88458;-65
2023/03/20 01:51:45;;;;;;;3.23;2.30;;;10.40;99.90;10.30;100588.00;;;;4894119;28;109081;-66
2023/03/20 01:54:26;;;;;;;3.87;2.60;;;10.40;99.90;10.30;100578.00;;;;4880197;28;105431;-65
2023/03/20 01:57:04;;;;;;;2.57;2.23;;;10.40;99.90;10.20;100581.00;;;;4907341;28;88720;-64
2023/03/20 01:59:37;;;;;;;3.40;2.20;;;10.30;99.90;10.30;100577.00;;;;4894498;28;88143;-65
2023/03/20 02:02:06;;;;;;;3.27;1.90;;;10.30;99.90;10.20;100574.00;;;;4893954;28;91176;-65
2023/03/20 02:04:43;;;;;;;3.37;2.07;;;10.30;99.90;10.20;100568.00;;;;4892616;28;89454;-65
2023/03/20 02:07:12;;;;;;;2.40;1.93;;;10.30;99.90;10.20;100572.00;;;;4893595;28;111643;-65
2023/03/20 02:09:38;;;;;;;4.30;2.00;;;10.30;99.90;10.20;100579.00;;;;4892151;28;102717;-65
2023/03/20 02:12:04;;;;;;;3.40;2.40;;;10.30;99.90;10.20;100575.00;;;;4894520;28;109758;-65
2023/03/20 02:14:32;;;;;;;3.77;1.87;;;10.20;99.90;10.20;100580.00;;;;4892318;28;117821;-65
2023/03/20 02:16:57;;;;;;;3.80;1.87;;;10.20;99.90;10.20;100577.00;;;;4890905;28;88280;-65
2023/03/20 02:20:09;;;;;;;4.47;2.87;;;10.20;99.90;10.10;100579.00;;;;4893714;28;110413;-65
2023/03/20 02:22:37;;;;;;;3.53;2.67;;;10.20;99.90;10.10;100586.00;;;;4877738;28;87022;-65
2023/03/20 02:25:22;;;;;;;4.57;2.37;;;10.20;99.90;10.10;100575.00;;;;4895702;28;88589;-65
2023/03/20 02:28:27;;;;;;;8.13;2.37;;;10.20;99.90;10.10;100580.00;;;;4895638;28;100706;-65
2023/03/20 02:31:35;;;;;;;4.70;2.03;;;10.20;99.90;10.10;100568.00;;;;4894005;28;88878;-65
2023/03/20 02:34:43;;;;;;;2.30;2.10;;;10.60;99.90;10.10;100581.00;;;;4910451;28;87931;-65
2023/03/20 02:38:06;;;;;;;2.67;2.30;;;10.20;99.90;10.10;100570.00;;;;4874949;28;88218;-65
2023/03/20 02:40:53;;;;;;;3.83;2.50;;;10.20;99.90;10.10;100586.00;;;;4892744;28;110916;-65
2023/03/20 02:43:59;;;;;;;4.07;1.63;;;10.20;99.90;10.00;100580.00;;;;4887894;28;88162;-66
2023/03/20 02:46:56;;;;;;;2.60;2.30;;;10.20;99.90;10.00;100580.00;;;;4898510;28;88059;-65
2023/03/20 02:49:56;;;;;;;4.77;2.20;;;10.10;99.90;10.00;100578.00;;;;4898937;28;88572;-65
2023/03/20 02:52:43;;;;;;;2.03;1.80;;;10.10;99.90;10.00;100571.00;;;;4910481;28;106749;-66
2023/03/20 02:55:18;;;;;;;7.03;3.37;;;10.10;99.90;10.00;100571.00;;;;4893538;28;105318;-65
2023/03/20 02:58:22;;;;;;;3.20;2.43;;;10.10;99.90;9.90;100566.00;;;;4895519;28;87945;-65
2023/03/20 03:01:00;;;;;;;3.97;2.50;;;10.10;99.90;9.90;100560.00;;;;4893253;28;97171;-67
2023/03/20 03:03:50;;;;;;;2.47;2.23;;;10.00;99.90;9.90;100567.00;;;;4895219;28;89682;-65
2023/03/20 03:06:43;;;;;;;3.07;2.77;;;10.00;99.90;9.80;100567.00;;;;4910772;28;87876;-64
2023/03/20 03:09:25;;;;;;;4.43;2.97;;;9.90;99.90;9.80;100566.00;;;;4889193;28;99656;-64
2023/03/20 03:11:58;;;;;;;2.80;1.97;;;10.00;99.90;9.80;100564.00;;;;4910565;28;88869;-65
2023/03/20 03:14:56;;;;;;;4.27;2.23;;;9.90;99.90;9.80;100563.00;;;;4894999;28;110714;-65
2023/03/20 03:17:26;;;;;;;2.27;2.07;;;9.90;99.90;9.80;100566.00;;;;4895041;28;104664;-65
2023/03/20 03:19:58;;;;;;;2.90;2.20;;;9.90;99.90;9.80;100561.00;;;;4895867;28;96861;-65
2023/03/20 03:22:25;;;;;;;4.27;2.93;;;9.90;99.90;9.80;100568.00;;;;4896170;28;89410;-66
2023/03/20 03:24:53;;;;;;;3.23;2.17;;;9.90;99.90;9.70;100576.00;;;;4910268;28;116625;-66
2023/03/20 03:27:27;;;;;;;4.10;3.00;;;9.80;99.90;9.70;100576.00;;;;4894497;28;88518;-65
2023/03/20 03:29:57;;;;;;;5.33;2.37;;;9.80;99.90;9.70;100572.00;;;;4891473;28;99364;-66
2023/03/20 03:32:31;;;;;;;2.70;2.07;;;9.80;99.90;9.70;100562.00;;;;4911687;28;88377;-65
2023/03/20 03:34:59;;;;;;;3.43;2.33;;;9.80;99.90;9.60;100570.00;;;;4896164;28;108070;-65
2023/03/20 03:37:48;;;;;;;3.80;2.20;;;9.70;99.90;9.60;100563.00;;;;4895037;28;90665;-65
2023/03/20 03:40:51;;;;;;;2.27;2.07;;;9.70;99.90;9.50;100566.00;;;;4896719;28;87819;-65
2023/03/20 03:43:51;;;;;;;2.13;1.93;;;9.70;99.90;9.50;100555.00;;;;4894531;28;88195;-66
2023/03/20 03:47:10;;;;;;;2.13;1.93;;;9.60;99.90;9.30;100571.00;;;;4889305;28;109319;-66
2023/03/20 03:49:43;;;;;;;3.17;2.87;;;9.50;99.90;9.30;100563.00;;;;4877417;28;88000;-66
2023/03/20 03:52:16;;;;;;;3.13;1.87;;;9.40;99.90;9.20;100567.00;;;;4889453;28;88068;-65
2023/03/20 03:54:55;;;;;;;5.00;1.83;;;9.40;99.90;9.20;100562.00;;;;4892229;28;90375;-65
2023/03/20 03:57:28;;;;;;;2.17;1.97;;;9.30;99.90;9.10;100561.00;;;;4889636;28;93391;-65
2023/03/20 03:59:57;;;;;;;4.63;2.70;;;9.20;99.90;9.00;100555.00;;;;4910947;28;104633;-65
2023/03/20 04:02:23;;;;;;;2.27;1.73;;;9.70;99.90;9.00;100563.00;;;;4909466;28;108636;-66
2023/03/20 04:04:52;;;;;;;3.73;1.97;;;9.10;99.90;8.90;100561.00;;;;4893354;28;115603;-65
2023/03/20 04:07:18;;;;;;;4.20;2.90;;;9.10;99.90;8.90;100571.00;;;;4909603;28;88192;-66
2023/03/20 04:09:44;;;;;;;3.57;2.27;;;9.00;99.90;8.80;100562.00;;;;4895182;28;87912;-65
2023/03/20 04:12:41;;;;;;;5.43;2.67;;;8.90;99.90;8.70;100572.00;;;;4896884;28;86962;-65
2023/03/20 04:15:08;;;;;;;2.50;2.30;;;8.90;99.90;8.70;100561.00;;;;4885077;28;87821;-66
2023/03/20 04:17:34;;;;;;;6.77;1.87;;;8.90;99.90;8.70;100574.00;;;;4895927;28;88226;-65
2023/03/20 04:20:00;;;;;;;2.10;1.40;;;8.80;99.90;8.60;100574.00;;;;4895650;28;88879;-65
2023/03/20 04:22:26;;;;;;;3.63;2.03;;;8.80;99.90;8.60;100578.00;;;;4889419;28;87925;-66
2023/03/20 04:24:51;;;;;;;2.23;1.97;;;8.70;99.90;8.60;100574.00;;;;4895131;28;88971;-65
2023/03/20 04:27:18;;;;;;;5.47;3.03;;;9.10;99.90;8.50;100570.00;;;;4896022;28;117746;-65
2023/03/20 04:29:44;;;;;;;4.63;3.20;;;8.60;99.90;8.50;100575.00;;;;4894727;28;87853;-66
2023/03/20 04:32:10;;;;;;;2.67;2.20;;;8.70;99.90;8.50;100572.00;;;;4895002;28;103073;-65
2023/03/20 04:34:36;;;;;;;3.77;2.53;;;8.60;99.90;8.50;100574.00;;;;4893270;28;88785;-65
2023/03/20 04:37:02;;;;;;;2.70;2.30;;;8.60;99.90;8.50;100575.00;;;;4894381;28;118843;-66
2023/03/20 04:39:27;;;;;;;4.10;2.87;;;8.60;99.90;8.50;100582.00;;;;4894286;28;109794;-66
2023/03/20 04:41:53;;;;;;;2.97;2.33;;;8.60;99.90;8.50;100592.00;;;;4889772;28;107618;-65
2023/03/20 04:44:19;;;;;;;2.53;2.27;;;8.60;99.90;8.50;100593.00;;;;4894973;28;89506;-65
2023/03/20 04:46:45;;;;;;;4.70;2.57;;;8.60;99.90;8.50;100590.00;;;;4893504;28;89085;-65
2023/03/20 04:49:11;;;;;;;2.80;2.43;;;8.60;99.90;8.50;100597.00;;;;4893141;28;110240;-65
2023/03/20 04:51:36;;;;;;;3.00;1.87;;;8.60;99.90;8.50;100603.00;;;;4894914;28;108078;-65
2023/03/20 04:54:03;;;;;;;5.40;2.87;;;8.60;99.90;8.60;100611.00;;;;4894098;28;115879;-65
2023/03/20 04:56:29;;;;;;;2.67;2.27;;;8.60;99.90;8.60;100602.00;;;;4893023;28;88042;-65
2023/03/20 04:58:58;;;;;;;3.67;3.03;;;8.70;99.90;8.60;100607.00;;;;4895134;28;87792;-64
2023/03/20 05:01:23;;;;;;;2.57;2.37;;;8.70;99.90;8.70;100600.00;;;;4894293;28;108079;-64
2023/03/20 05:03:49;;;;;;;3.70;2.53;;;8.70;99.90;8.70;100604.00;;;;4893433;28;99694;-66
2023/03/20 05:06:15;;;;;;;3.50;2.43;;;8.80;99.90;8.80;100608.00;;;;4890371;28;88049;-65
2023/03/20 05:08:40;;;;;;;2.83;2.43;;;8.80;99.90;8.80;100614.00;;;;4891458;28;110383;-65
2023/03/20 05:11:07;;;;;;;5.20;3.03;;;8.90;99.90;8.90;100612.00;;;;4893146;28;108749;-65
2023/03/20 05:13:32;;;;;;;3.23;2.67;;;8.90;99.90;8.90;100613.00;;;;4893227;28;88790;-65
2023/03/20 05:15:58;;;;;;;2.90;2.40;;;9.00;99.90;9.00;100619.00;;;;4892211;28;115824;-65
2023/03/20 05:18:24;;;;;;;3.47;2.10;;;9.10;99.90;9.00;100625.00;;;;4893963;28;111645;-65
2023/03/20 05:20:49;;;;;;;2.43;2.23;;;9.10;99.90;9.10;100622.00;;;;4893676;28;109145;-65
2023/03/20 05:23:15;;;;;;;3.73;2.87;;;9.10;99.90;9.10;100621.00;;;;4894062;28;88952;-65
2023/03/20 05:25:41;;;;;;;3.57;2.53;;;9.10;99.90;9.10;100626.00;;;;4890585;28;117207;-65
2023/03/20 05:28:06;;;;;;;2.43;2.23;;;9.20;99.90;9.20;100630.00;;;;4892290;28;108882;-64
2023/03/20 05:30:32;;;;;;;3.43;2.23;;;9.20;99.90;9.20;100621.00;;;;4891776;28;90281;-64
2023/03/20 05:33:01;;;;;;;5.23;3.20;;;9.30;99.90;9.20;100632.00;;;;4889121;28;89673;-64
2023/03/20 05:35:26;;;;;;;4.10;2.67;;;9.30;99.90;9.30;100630.00;;;;4889712;28;119318;-64
2023/03/20 05:37:52;;;;;;;2.17;1.97;;;9.30;99.90;9.30;100625.00;;;;4890448;28;89348;-64
2023/03/20 05:40:19;;;;;;;2.97;2.20;;;9.40;99.90;9.30;100628.00;;;;4888584;28;109025;-64
2023/03/20 05:42:45;;;;;;;3.07;2.27;;;9.40;99.90;9.30;100624.00;;;;4891037;28;88903;-64
2023/03/20 05:45:11;;;;;;;2.33;1.97;;;9.40;99.90;9.40;100632.00;;;;4890495;28;88933;-64
2023/03/20 05:47:37;;;;;;;3.37;2.10;;;9.40;99.90;9.40;100631.00;;;;4894636;28;88264;-65
2023/03/20 05:50:03;;;;;;;3.23;2.10;;;9.50;99.90;9.40;100633.00;;;;4894283;28;109074;-64
2023/03/20 05:52:29;;;;;;;1.93;1.70;;;9.50;99.90;9.40;100644.00;;;;4895418;28;89046;-64
2023/03/20 05:54:54;;;;;;;2.73;2.13;;;9.50;99.90;9.50;100643.00;;;;4893989;28;88085;-65
2023/03/20 05:57:20;;;;;;;3.57;2.77;;;9.50;99.90;9.50;100641.00;;;;4892322;28;111220;-64
2023/03/20 05:59:46;;;;;;;3.67;2.30;;;9.60;99.90;9.50;100645.00;;;;4895028;28;87834;-63
2023/03/20 06:02:12;;;;;;;2.63;2.17;;;9.60;99.90;9.60;100653.00;;;;4892117;28;118098;-63
2023/03/20 06:04:38;;;;;;;3.33;1.67;;;9.60;99.90;9.60;100651.00;;;;4892406;28;117675;-63
2023/03/20 06:07:03;;;;;;;3.97;1.97;;;9.60;99.90;9.60;100652.00;;;;4892448;28;87825;-64
2023/03/20 06:09:29;;;;;;;4.73;1.93;;;9.60;99.90;9.70;100652.00;;;;4892653;28;108862;-64
2023/03/20 06:11:55;;;;;;;3.60;1.73;;;9.70;99.90;9.70;100649.00;;;;4895757;28;112231;-63
2023/03/20 06:14:21;;;;;;;2.73;1.73;;;9.70;99.90;9.70;100643.00;;;;4894902;28;88911;-65
2023/03/20 06:16:46;;;;;;;3.93;2.70;;;9.70;99.90;9.70;100643.00;;;;4896333;28;99250;-64
2023/03/20 06:19:12;;;;;;;1.73;1.50;;;9.80;99.90;9.80;100648.00;;;;4898127;28;87881;-65
2023/03/20 06:21:38;;;;;;;4.13;2.40;;;9.80;99.90;9.80;100653.00;;;;4893076;28;110749;-64
2023/03/20 06:24:04;;;;;;;2.77;1.87;;;9.90;99.90;9.80;100650.00;;;;4896411;28;118166;-63
2023/03/20 06:26:30;;;;;;;2.30;1.70;;;9.90;99.90;9.90;100654.00;;;;4898615;28;88120;-65
2023/03/20 06:28:55;;;;;;;2.43;1.83;;;9.90;99.90;9.90;100659.00;;;;4896501;28;106308;-62
2023/03/20 06:31:22;;;;;;;1.67;1.57;;;10.00;99.90;10.00;100664.00;;;;4893474;28;88906;-63
2023/03/20 06:33:47;;;;;;;2.17;1.97;;;10.00;99.90;10.00;100656.00;;;;4893850;28;88933;-64
2023/03/20 06:36:13;;;;;;;2.07;1.63;;;10.00;99.90;10.00;100661.00;;;;4894733;28;87838;-64
2023/03/20 06:38:39;;;;;;;2.77;1.77;;;10.20;99.90;10.10;100656.00;;;;4896474;28;99542;-63
2023/03/20 06:41:05;;;;;;;2.37;2.00;;;10.10;99.90;10.10;100656.00;;;;4894557;28;116728;-64
2023/03/20 06:43:31;;;;;;;2.10;1.57;;;10.20;99.90;10.20;100656.00;;;;4893987;28;89296;-65
2023/03/20 06:46:00;;;;;;;2.83;2.20;;;10.20;99.90;10.20;100660.00;;;;4896064;28;110241;-64
2023/03/20 06:48:25;;;;;;;2.80;2.10;;;10.20;99.90;10.20;100657.00;;;;4896374;28;98644;-64
2023/03/20 06:50:52;;;;;;;2.63;2.43;;;10.30;99.90;10.30;100655.00;;;;4897007;28;117173;-63
2023/03/20 06:53:17;;;;;;;3.10;2.13;;;10.30;99.90;10.30;100659.00;;;;4895613;28;88195;-63
2023/03/20 06:55:47;;;;;;;3.00;2.53;;;10.40;99.90;10.40;100667.00;;;;4896844;28;87719;-65
2023/03/20 06:58:13;;;;;;;4.00;1.70;;;10.40;99.90;10.40;100668.00;;;;4897417;28;87654;-63
2023/03/20 07:00:38;;;;;;;2.30;1.80;;;10.40;99.90;10.50;100662.00;;;;4896235;28;117868;-63
2023/03/20 07:03:04;;;;;;;2.30;1.77;;;10.50;99.90;10.60;100670.00;;;;4894184;28;93950;-63
2023/03/20 07:05:30;;;;;;;4.20;2.30;;;10.60;99.90;10.60;100658.00;;;;4897732;28;87877;-63
2023/03/20 07:07:55;;;;;;;2.40;1.57;;;10.60;99.90;10.70;100669.00;;;;4897509;28;93806;-63
2023/03/20 07:10:22;;;;;;;4.00;2.33;;;10.70;99.90;10.70;100669.00;;;;4892267;28;118694;-63
2023/03/20 07:12:48;;;;;;;2.47;2.00;;;10.80;99.90;10.80;100674.00;;;;4895497;28;89102;-63
2023/03/20 07:15:13;;;;;;;2.37;1.63;;;10.80;99.90;10.90;100679.00;;;;4894513;28;88106;-65
2023/03/20 07:17:39;;;;;;;4.13;1.87;;;11.10;99.90;11.00;100683.00;;;;4895059;28;103208;-63
2023/03/20 07:20:07;;;;;;;2.00;1.80;;;11.00;99.90;11.10;100680.00;;;;4894655;28;118245;-65
2023/03/20 07:22:33;;;;;;;3.60;2.10;;;11.10;99.90;11.20;100680.00;;;;4898837;28;88155;-63
2023/03/20 07:24:58;;;;;;;2.20;2.00;;;11.20;99.90;11.30;100686.00;;;;4896084;28;94459;-64
2023/03/20 07:27:25;;;;;;;2.03;1.83;;;11.20;99.90;11.40;100691.00;;;;4894568;28;87039;-64
2023/03/20 07:29:51;;;;;;;2.70;2.07;;;11.30;99.90;11.40;100679.00;;;;4894004;28;88893;-64
2023/03/20 07:32:17;;;;;;;1.60;1.50;;;11.40;99.90;11.50;100685.00;;;;4896769;28;88950;-64
2023/03/20 07:34:43;;;;;;;1.63;1.53;;;11.50;99.90;11.50;100690.00;;;;4894669;28;94237;-65
2023/03/20 07:37:09;;;;;;;1.67;1.33;;;11.50;99.90;11.50;100683.00;;;;4895376;28;87829;-63
2023/03/20 07:39:35;;;;;;;3.77;2.90;;;11.60;99.90;11.60;100690.00;;;;4893755;28;89255;-63
2023/03/20 07:42:00;;;;;;;4.87;1.87;;;11.60;99.90;11.60;100686.00;;;;4893291;28;89039;-63
2023/03/20 07:44:26;;;;;;;2.00;1.47;;;11.60;99.90;11.60;100695.00;;;;4895759;28;112720;-63
2023/03/20 07:46:52;;;;;;;2.40;1.93;;;11.70;99.90;11.70;100704.00;;;;4895639;28;94439;-62
2023/03/20 07:49:18;;;;;;;2.73;2.03;;;11.70;99.90;11.70;100708.00;;;;4893736;28;117515;-62
2023/03/20 07:51:48;;;;;;;2.67;1.83;;;11.70;99.90;11.70;100705.00;;;;4894719;28;88888;-65
2023/03/20 07:54:14;;;;;;;3.63;2.10;;;11.70;99.90;11.60;100715.00;;;;4893477;28;88026;-64
2023/03/20 07:56:40;;;;;;;3.97;2.30;;;11.70;99.90;11.40;100712.00;;;;4909068;28;89318;-62
2023/03/20 07:59:06;;;;;;;5.10;2.03;;;11.50;99.90;11.30;100715.00;;;;4894015;28;112194;-64
2023/03/20 08:01:32;;;;;;;3.30;2.63;;;11.40;99.90;11.20;100714.00;;;;4894450;28;89467;-64
2023/03/20 08:03:58;;;;;;;2.03;1.87;;;11.30;99.90;11.20;100707.00;;;;4891874;28;87811;-63
2023/03/20 08:06:24;;;;;;;2.73;2.10;;;11.20;99.90;11.10;100714.00;;;;4892655;28;107781;-64
2023/03/20 08:08:51;;;;;;;4.47;2.23;;;11.20;99.90;11.10;100713.00;;;;4895542;28;87975;-64
2023/03/20 08:11:18;;;;;;;5.33;2.50;;;11.20;99.90;11.10;100715.00;;;;4895148;28;87989;-63
2023/03/20 08:13:45;;;;;;;2.37;2.10;;;11.10;99.90;11.10;100708.00;;;;4892785;28;87787;-62
2023/03/20 08:16:10;;;;;;;2.77;1.93;;;11.10;99.90;11.10;100713.00;;;;4892722;28;103175;-63
2023/03/20 08:18:36;;;;;;;2.87;2.23;;;11.10;99.90;11.10;100712.00;;;;4894359;28;102265;-64
2023/03/20 08:21:02;;;;;;;2.67;2.27;;;11.20;99.90;11.20;100712.00;;;;4894682;28;116899;-64
2023/03/20 08:23:28;;;;;;;5.37;3.30;;;11.20;99.90;11.30;100717.00;;;;4895157;28;88851;-64
2023/03/20 08:25:54;;;;;;;3.33;2.67;;;11.30;99.90;11.30;100704.00;;;;4892280;28;89809;-63
2023/03/20 08:28:21;;;;;;;6.93;2.37;;;11.30;99.90;11.40;100698.00;;;;4890903;28;87852;-63
2023/03/20 08:30:46;;;;;;;2.43;1.87;;;11.40;99.90;11.40;100706.00;;;;4894126;28;88589;-64
2023/03/20 08:33:15;;;;;;;2.47;2.00;;;11.40;99.90;11.50;100702.00;;;;4889822;28;87842;-62
2023/03/20 08:35:42;;;;;;;3.30;2.50;;;11.50;99.90;11.60;100701.00;;;;4893927;28;88914;-63
2023/03/20 08:38:12;;;;;;;4.00;2.30;;;11.60;99.90;11.70;100712.00;;;;4891536;28;88333;-62
2023/03/20 08:40:41;;;;;;;3.60;2.73;;;11.70;99.90;11.80;100709.00;;;;4896215;28;87590;-63
2023/03/20 08:43:07;;;;;;;3.37;2.67;;;11.70;99.90;11.90;100712.00;;;;4895379;28;87852;-63
2023/03/20 08:45:33;;;;;;;2.30;2.10;;;11.90;99.90;12.00;100714.00;;;;4894591;28;87832;-62
2023/03/20 08:47:58;;;;;;;3.60;2.57;;;12.00;99.90;12.10;100717.00;;;;4891362;28;118275;-63
2023/03/20 08:50:24;;;;;;;3.13;2.23;;;12.10;99.90;12.20;100715.00;;;;4891150;28;119164;-63
2023/03/20 08:52:50;;;;;;;5.87;2.77;;;12.20;99.90;12.30;100721.00;;;;4893982;28;110973;-62
2023/03/20 08:55:16;;;;;;;2.50;2.27;;;12.30;99.90;12.40;100724.00;;;;4893159;28;87747;-63
2023/03/20 08:57:41;;;;;;;5.93;2.63;;;12.40;99.90;12.50;100713.00;;;;4890585;28;113606;-64
2023/03/20 09:00:12;;;;;;;4.23;3.07;;;12.40;99.90;12.60;100714.00;;;;4895484;28;88695;-64
2023/03/20 09:02:38;;;;;;;7.77;3.23;;;12.50;99.90;12.60;100711.00;;;;4895501;28;87761;-63
2023/03/20 09:05:04;;;;;;;5.07;3.93;;;12.60;99.90;12.70;100712.00;;;;4894673;28;109958;-62
2023/03/20 09:07:30;;;;;;;5.77;2.97;;;12.60;99.90;12.70;100703.00;;;;4892901;28;87936;-63
2023/03/20 09:09:56;;;;;;;6.47;3.83;;;12.70;99.90;12.80;100714.00;;;;4893780;28;115133;-64
2023/03/20 09:12:21;;;;;;;5.17;3.10;;;12.80;99.90;13.00;100714.00;;;;4895217;28;108940;-63
2023/03/20 09:14:47;;;;;;;4.83;3.20;;;12.90;99.90;13.10;100721.00;;;;4892370;28;109137;-62
2023/03/20 09:17:13;;;;;;;4.40;4.00;;;13.00;99.90;13.20;100722.00;;;;4893249;28;116592;-63
2023/03/20 09:19:41;;;;;;;5.37;3.73;;;13.10;99.90;13.30;100724.00;;;;4894578;28;117084;-63
2023/03/20 09:22:07;;;;;;;6.10;4.32;;;13.20;99.90;13.30;100724.00;;;;4898519;28;87757;-63
2023/03/20 09:24:33;;;;;;;4.55;3.70;;;13.30;99.90;13.20;100724.00;;;;4898227;28;107422;-64
2023/03/20 09:26:59;;;;;;;6.73;5.17;;;13.20;99.90;13.10;100733.00;;;;4897990;28;88093;-62
2023/03/20 09:29:26;;;;;;;10.10;6.13;;;13.20;99.90;13.00;100734.00;;;;4896851;28;88921;-63
2023/03/20 09:31:52;;;;;;;6.43;4.70;;;13.10;99.90;12.90;100742.00;;;;4891551;28;98075;-63
2023/03/20 09:34:18;;;;;;;9.73;5.87;;;13.00;99.90;12.90;100746.00;;;;4897795;28;88586;-62
2023/03/20 09:36:43;;;;;;;7.83;4.73;;;12.90;99.90;12.80;100748.00;;;;4895668;28;118868;-63
2023/03/20 09:39:09;;;;;;;8.23;4.47;;;12.80;99.90;12.70;100750.00;;;;4896311;28;117070;-64
2023/03/20 09:41:36;;;;;;;8.07;4.93;;;12.70;99.90;12.60;100757.00;;;;4893866;28;87737;-63
2023/03/20 09:44:36;;;;;;;7.80;5.20;;;12.70;99.90;12.50;100755.00;;;;4896481;28;87887;-63
2023/03/20 09:47:32;;;;;;;5.10;4.60;;;12.60;99.90;12.40;100764.00;;;;4897459;28;109050;-63
2023/03/20 09:50:33;;;;;;;7.97;5.37;;;12.50;99.90;12.30;100775.00;;;;4910557;28;88127;-63
2023/03/20 09:53:29;;;;;;;12.87;6.57;;;12.40;99.90;12.10;100770.00;;;;4909269;28;103862;-64
2023/03/20 09:55:56;;;;;;;10.80;5.70;;;12.30;99.90;11.90;100757.00;;;;4894902;28;87240;-62
2023/03/20 09:58:29;;;;;;;13.00;6.37;;;12.00;99.90;11.70;100757.00;;;;4897181;28;88331;-63
2023/03/20 10:00:59;;;;;;;9.80;5.53;;;11.90;99.90;11.50;100764.00;;;;4894007;28;110154;-64
2023/03/20 10:03:42;;;;;;;13.20;6.77;;;11.70;99.90;11.30;100768.00;;;;4897835;28;88707;-65
2023/03/20 10:06:15;;;;;;;9.03;6.33;;;11.50;99.90;11.30;100766.00;;;;4896585;28;87956;-65
2023/03/20 10:08:41;;;;;;;10.93;6.67;;;11.40;99.90;11.20;100768.00;;;;4911986;28;89055;-65
2023/03/20 10:11:37;;;;;;;9.90;8.07;;;11.30;99.90;11.20;100771.00;;;;4897695;28;88737;-65
2023/03/20 10:14:23;;;;;;;10.00;7.20;;;11.30;99.90;11.20;100765.00;;;;4912002;28;100056;-65
2023/03/20 10:17:13;;;;;;;14.27;7.87;;;11.20;99.90;11.20;100773.00;;;;4893041;28;101737;-65
2023/03/20 10:19:47;;;;;;;12.77;7.83;;;11.20;99.90;11.10;100773.00;;;;4889193;28;111345;-66
2023/03/20 10:22:29;;;;;;;11.80;7.10;;;11.20;99.90;11.20;100768.00;;;;4895005;28;88357;-65
2023/03/20 10:25:09;;;;;;;12.87;8.07;;;11.20;99.90;11.20;100762.00;;;;4894394;28;88042;-67
2023/03/20 10:27:43;;;;;;;13.20;7.33;;;11.20;99.90;11.20;100768.00;;;;4910878;28;87714;-67
2023/03/20 10:30:27;;;;;;;12.00;7.77;;;11.30;99.90;11.30;100775.00;;;;4885225;28;89318;-66
2023/03/20 10:33:11;;;;;;;13.73;8.53;;;11.30;99.90;11.30;100770.00;;;;4890686;28;106488;-65
2023/03/20 10:36:03;;;;;;;9.60;7.13;;;11.30;99.90;11.30;100780.00;;;;4896576;28;87643;-67
2023/03/20 10:38:44;;;;;;;15.37;7.73;;;11.40;99.90;11.30;100774.00;;;;4895168;28;93608;-65
2023/03/20 10:41:21;;;;;;;13.80;8.63;;;11.40;99.90;11.30;100771.00;;;;4892268;28;108200;-64
2023/03/20 10:43:50;;;;;;;16.37;7.43;;;11.30;99.90;11.30;100775.00;;;;4888892;28;87976;-64
2023/03/20 10:46:30;;;;;;;14.03;8.47;;;11.40;99.90;11.30;100774.00;;;;4894467;28;89671;-65
2023/03/20 10:49:08;;;;;;;17.47;7.43;;;11.40;99.90;11.40;100765.00;;;;4894105;28;97073;-64
2023/03/20 10:51:51;;;;;;;7.53;5.60;;;11.40;99.90;11.40;100763.00;;;;4892865;28;112060;-66
2023/03/20 10:54:32;;;;;;;8.87;7.00;;;11.40;99.90;11.40;100777.00;;;;4894160;28;90307;-65
2023/03/20 10:57:01;;;;;;;11.23;5.73;;;11.40;99.90;11.30;100773.00;;;;4893620;28;88892;-64
2023/03/20 10:59:33;;;;;;;6.37;5.17;;;11.40;99.90;11.30;100770.00;;;;4893668;28;87826;-65
2023/03/20 11:01:59;;;;;;;10.23;4.97;;;11.40;99.90;11.30;100774.00;;;;4896844;28;89243;-64
2023/03/20 11:04:25;;;;;;;9.40;6.57;;;11.30;99.90;11.30;100775.00;;;;4898494;28;88566;-66
2023/03/20 11:07:20;;;;;;;9.67;5.60;;;11.30;99.90;11.20;100775.00;;;;4895232;28;99446;-65